Time;durP1;ratioP1;P1;durP2;ratioP2;P2;SDS_P1;SDS_P2;PMS_P1;PMS_P2;Temp;Humidity;BMP_temperature;BMP_pressure;BME280_temperature;BME280_humidity;BME280_pressure;Samples;Min_cycle;Max_cycle;Signal;HPM_P1;HPM_P2
2022/07/16 00:03:29;;;;;;;4.65;1.80;;;;;;;14.56;87.18;102076.81;5017086;28;20040;-62
2022/07/16 00:05:55;;;;;;;5.00;2.78;;;;;;;14.61;87.60;102075.25;5029398;28;20030;-62
2022/07/16 00:08:21;;;;;;;2.17;1.73;;;;;;;14.65;87.39;102076.22;5029486;28;20013;-62
2022/07/16 00:10:46;;;;;;;3.35;1.95;;;;;;;14.69;86.40;102072.00;5027308;28;20030;-61
2022/07/16 00:13:11;;;;;;;2.78;1.98;;;;;;;14.73;86.46;102069.53;5028165;28;20028;-60
2022/07/16 00:15:37;;;;;;;4.25;1.90;;;;;;;14.78;86.01;102067.13;5029103;28;20374;-62
2022/07/16 00:20:46;;;;;;;3.17;1.77;;;;;;;14.84;84.83;102083.00;5028457;28;20384;-61
2022/07/16 00:23:12;;;;;;;4.50;2.05;;;;;;;14.88;84.80;102087.50;5028835;28;20116;-61
2022/07/16 00:25:37;;;;;;;2.55;2.03;;;;;;;14.87;83.40;102082.22;5028863;28;20060;-62
2022/07/16 00:28:03;;;;;;;4.88;2.20;;;;;;;14.84;84.12;102088.22;5028671;28;20067;-61
2022/07/16 00:30:29;;;;;;;2.53;1.58;;;;;;;14.79;85.46;102078.44;5028836;28;20022;-61
2022/07/16 00:32:54;;;;;;;3.40;2.60;;;;;;;14.72;85.33;102082.53;5028626;28;20098;-61
2022/07/16 00:35:20;;;;;;;3.13;1.80;;;;;;;14.66;85.37;102080.59;5028858;28;20029;-62
2022/07/16 00:37:45;;;;;;;4.72;2.40;;;;;;;14.62;86.58;102082.25;5028488;28;20087;-61
2022/07/16 00:40:11;;;;;;;4.10;2.00;;;;;;;14.59;86.17;102082.13;5028462;28;20041;-61
2022/07/16 00:42:36;;;;;;;3.60;2.05;;;;;;;14.58;86.70;102079.47;5016282;28;20044;-62
2022/07/16 00:45:02;;;;;;;5.28;1.98;;;;;;;14.58;86.80;102079.47;5028806;28;20033;-61
2022/07/16 00:47:28;;;;;;;6.30;2.17;;;;;;;14.57;87.44;102088.13;5027458;28;20028;-62
2022/07/16 00:49:53;;;;;;;2.72;1.70;;;;;;;14.58;86.91;102079.47;5016122;28;20477;-62
2022/07/16 00:52:18;;;;;;;3.80;2.25;;;;;;;14.61;86.62;102080.47;5028373;28;20035;-63
2022/07/16 00:54:43;;;;;;;2.70;1.83;;;;;;;14.62;87.08;102077.03;5027816;28;20033;-62
2022/07/16 00:57:09;;;;;;;3.85;1.90;;;;;;;14.64;87.38;102077.94;5028265;28;20029;-62
2022/07/16 00:59:34;;;;;;;3.20;1.85;;;;;;;14.68;87.21;102078.06;5028054;28;20462;-62
2022/07/16 01:01:59;;;;;;;3.80;1.77;;;;;;;14.72;86.44;102077.31;5027985;28;20511;-61
2022/07/16 01:04:25;;;;;;;5.63;1.70;;;;;;;14.73;86.02;102076.50;5027574;28;20493;-62
2022/07/16 01:06:50;;;;;;;3.25;1.75;;;;;;;14.75;87.62;102077.47;5027035;28;20119;-62
2022/07/16 01:09:17;;;;;;;2.15;1.95;;;;;;;14.81;86.29;102072.47;5027772;28;20103;-62
2022/07/16 01:11:44;;;;;;;3.35;2.03;;;;;;;14.83;86.93;102069.91;5008892;28;20030;-62
2022/07/16 01:14:10;;;;;;;2.65;1.80;;;;;;;14.83;85.27;102076.03;5019469;28;20021;-62
2022/07/16 01:16:35;;;;;;;2.63;1.55;;;;;;;14.85;85.96;102065.63;5014158;28;20409;-62
2022/07/16 01:19:01;;;;;;;2.80;1.70;;;;;;;14.86;86.01;102067.38;5012969;28;20057;-62
2022/07/16 01:21:26;;;;;;;5.50;2.45;;;;;;;14.88;85.14;102069.22;5027552;28;20025;-61
2022/07/16 01:23:51;;;;;;;1.83;1.63;;;;;;;14.91;86.02;102067.56;5014389;28;20035;-61
2022/07/16 01:26:17;;;;;;;2.50;1.67;;;;;;;14.89;85.44;102060.56;5027641;28;20079;-63
2022/07/16 01:28:42;;;;;;;4.43;1.90;;;;;;;14.91;84.97;102063.25;5027321;28;20577;-61
2022/07/16 01:31:08;;;;;;;1.98;1.55;;;;;;;14.93;84.18;102055.47;5027819;28;20052;-62
2022/07/16 01:33:36;;;;;;;4.18;1.60;;;;;;;14.94;84.05;102057.22;5027298;28;20063;-62
2022/07/16 01:36:11;;;;;;;4.38;2.00;;;;;;;14.96;83.78;102052.94;5026818;28;20029;-62
2022/07/16 01:38:39;;;;;;;2.55;1.70;;;;;;;14.97;84.42;102065.13;5027234;28;20521;-60
2022/07/16 01:41:05;;;;;;;3.20;1.92;;;;;;;14.99;84.00;102072.19;5022202;28;20049;-63
2022/07/16 01:43:30;;;;;;;2.33;1.83;;;;;;;15.02;83.89;102067.91;5027088;28;20034;-62
2022/07/16 01:45:57;;;;;;;3.95;2.05;;;;;;;15.07;82.40;102071.56;5026472;28;20041;-62
2022/07/16 01:48:23;;;;;;;6.50;2.30;;;;;;;15.11;81.48;102076.94;5027265;28;20033;-63
2022/07/16 01:50:49;;;;;;;3.92;2.30;;;;;;;15.16;80.88;102078.81;5027153;28;20466;-62
2022/07/16 01:53:14;;;;;;;3.30;2.20;;;;;;;15.20;81.78;102078.09;5027274;28;20471;-62
2022/07/16 01:55:41;;;;;;;4.18;2.03;;;;;;;15.20;81.46;102072.88;5027526;28;20057;-62
2022/07/16 01:58:08;;;;;;;3.20;2.15;;;;;;;15.22;81.02;102073.78;5026919;28;20032;-62
2022/07/16 02:00:36;;;;;;;3.85;1.90;;;;;;;15.18;81.25;102071.94;5026820;28;20026;-62
2022/07/16 02:03:03;;;;;;;5.22;2.42;;;;;;;15.16;81.50;102065.75;5027294;28;20075;-62
2022/07/16 02:05:28;;;;;;;2.95;2.33;;;;;;;15.13;81.96;102063.94;5027320;28;20389;-62
2022/07/16 02:07:54;;;;;;;2.70;2.20;;;;;;;15.13;81.34;102063.94;5026772;28;20025;-62
2022/07/16 02:10:19;;;;;;;2.85;2.20;;;;;;;15.12;81.31;102063.06;5027084;28;20025;-63
2022/07/16 02:12:45;;;;;;;2.50;2.30;;;;;;;15.09;80.96;102056.84;5027015;28;20499;-63
2022/07/16 02:15:11;;;;;;;4.40;2.45;;;;;;;15.06;81.31;102065.44;5026369;28;20040;-61
2022/07/16 02:17:37;;;;;;;3.63;2.25;;;;;;;15.05;80.84;102061.09;5014072;28;20029;-62
2022/07/16 02:20:05;;;;;;;3.60;2.70;;;;;;;15.07;81.22;102059.41;5020674;28;20040;-61
2022/07/16 02:22:31;;;;;;;3.95;2.60;;;;;;;15.08;81.32;102055.06;5025335;28;20455;-62
2022/07/16 02:24:56;;;;;;;2.53;1.85;;;;;;;15.09;82.13;102055.09;5026624;28;20033;-62
2022/07/16 02:27:22;;;;;;;3.40;1.95;;;;;;;15.07;81.81;102048.97;5019093;28;20025;-62
2022/07/16 02:29:47;;;;;;;5.70;2.60;;;;;;;15.06;81.85;102057.63;5026976;28;20078;-62
2022/07/16 02:32:13;;;;;;;4.30;2.75;;;;;;;15.09;81.71;102052.50;5025748;28;20167;-61
2022/07/16 02:34:38;;;;;;;5.25;2.63;;;;;;;15.11;81.27;102058.66;5026721;28;20033;-61
2022/07/16 02:37:04;;;;;;;3.83;2.35;;;;;;;15.13;80.49;102059.59;5026624;28;20017;-62
2022/07/16 02:39:29;;;;;;;3.67;2.22;;;;;;;15.15;81.88;102053.56;5026346;28;20018;-61
2022/07/16 02:41:54;;;;;;;4.35;2.45;;;;;;;15.12;82.20;102047.41;5026287;28;20520;-62
2022/07/16 02:44:19;;;;;;;4.72;2.63;;;;;;;15.11;81.81;102043.00;5026196;28;20025;-61
2022/07/16 02:46:45;;;;;;;4.10;2.35;;;;;;;15.09;81.11;102047.28;5026573;28;20029;-61
2022/07/16 02:49:10;;;;;;;5.43;3.08;;;;;;;15.11;81.95;102055.19;5026089;28;20021;-62
2022/07/16 02:51:36;;;;;;;4.28;3.00;;;;;;;15.10;81.58;102048.16;5026005;28;20451;-61
2022/07/16 02:54:01;;;;;;;2.95;2.53;;;;;;;15.11;81.08;102044.75;5026607;28;20026;-61
2022/07/16 02:56:26;;;;;;;3.97;2.65;;;;;;;15.15;81.06;102050.94;5026558;28;20037;-61
2022/07/16 02:58:52;;;;;;;3.33;3.03;;;;;;;15.17;80.38;102047.53;5026775;28;20370;-62
2022/07/16 03:01:17;;;;;;;3.47;2.83;;;;;;;15.22;79.46;102058.09;5026253;28;20031;-62
2022/07/16 03:03:42;;;;;;;3.90;2.97;;;;;;;15.24;80.37;102051.22;5026324;28;20601;-62
2022/07/16 03:06:08;;;;;;;5.03;2.90;;;;;;;15.23;81.36;102054.69;5026162;28;20022;-62
2022/07/16 03:08:33;;;;;;;6.18;3.58;;;;;;;15.20;81.60;102044.16;5026362;28;20033;-62
2022/07/16 03:10:58;;;;;;;5.28;3.97;;;;;;;15.18;80.52;102058.88;5026239;28;20061;-61
2022/07/16 03:13:24;;;;;;;6.03;4.03;;;;;;;15.19;80.06;102058.03;5012828;28;20059;-62
2022/07/16 03:15:49;;;;;;;6.00;3.95;;;;;;;15.22;79.75;102063.34;5026425;28;20044;-62
2022/07/16 03:18:14;;;;;;;5.88;4.28;;;;;;;15.25;79.94;102056.47;5014411;28;20084;-61
2022/07/16 03:20:39;;;;;;;6.40;3.55;;;;;;;15.26;80.76;102060.00;5024523;28;20028;-62
2022/07/16 03:23:05;;;;;;;6.78;4.82;;;;;;;15.26;79.51;102060.00;5026297;28;20458;-61
2022/07/16 03:25:30;;;;;;;5.53;3.90;;;;;;;15.27;79.71;102061.78;5025703;28;20033;-62
2022/07/16 03:27:55;;;;;;;6.30;3.83;;;;;;;15.27;79.92;102061.78;5026397;28;20260;-62
2022/07/16 03:30:21;;;;;;;7.18;4.30;;;;;;;15.26;79.52;102070.44;5028796;28;20382;-61
2022/07/16 03:32:46;;;;;;;7.28;4.70;;;;;;;15.27;79.55;102073.94;5030228;28;20370;-61
2022/07/16 03:35:13;;;;;;;6.15;4.20;;;;;;;15.29;78.37;102064.44;5029193;28;20073;-62
2022/07/16 03:38:57;;;;;;;4.70;3.80;;;;;;;15.29;78.55;102064.44;5028024;28;20051;-62
2022/07/16 03:40:24;;;;;;;6.40;4.70;;;;;;;15.29;78.13;102074.88;5027309;28;20103;-62
2022/07/16 03:42:49;;;;;;;4.45;3.70;;;;;;;15.31;78.02;102068.00;5028153;28;20025;-61
2022/07/16 03:45:15;;;;;;;6.75;4.35;;;;;;;15.34;77.51;102078.53;5027573;28;20272;-62
2022/07/16 03:47:40;;;;;;;6.57;4.30;;;;;;;15.36;78.10;102082.09;5027587;28;20504;-62
2022/07/16 03:50:06;;;;;;;9.07;5.57;;;;;;;15.35;79.29;102081.19;5028179;28;20389;-62
2022/07/16 03:52:31;;;;;;;10.23;4.57;;;;;;;15.34;79.49;102082.00;5026763;28;20037;-62
2022/07/16 03:54:56;;;;;;;5.32;4.43;;;;;;;15.33;80.97;102081.97;5028955;28;20495;-61
2022/07/16 03:57:21;;;;;;;6.97;5.13;;;;;;;15.29;81.04;102080.97;5029280;28;20033;-61
2022/07/16 03:59:47;;;;;;;5.70;4.88;;;;;;;15.28;81.59;102091.38;5029466;28;20021;-62
2022/07/16 04:02:12;;;;;;;5.28;4.55;;;;;;;15.24;82.50;102091.28;5028790;28;20025;-62
2022/07/16 04:04:37;;;;;;;6.93;5.35;;;;;;;15.22;83.22;102097.28;5029375;28;20029;-62
2022/07/16 04:07:03;;;;;;;6.80;4.85;;;;;;;15.18;83.44;102092.81;5022856;28;20025;-61
2022/07/16 04:09:28;;;;;;;6.80;5.32;;;;;;;15.17;84.27;102096.25;5016648;28;20034;-61
2022/07/16 04:11:55;;;;;;;5.82;5.00;;;;;;;15.16;83.96;102099.69;5027830;28;20036;-62
2022/07/16 04:14:21;;;;;;;7.90;5.70;;;;;;;15.19;83.60;102099.78;5028775;28;20197;-61
2022/07/16 04:16:46;;;;;;;6.97;5.00;;;;;;;15.19;84.08;102099.78;5020488;28;20029;-61
2022/07/16 04:19:11;;;;;;;4.63;4.30;;;;;;;15.20;83.69;102106.81;5016923;28;20025;-62
2022/07/16 04:21:37;;;;;;;7.50;5.30;;;;;;;15.21;84.41;102105.97;5029152;28;20029;-62
2022/07/16 04:24:02;;;;;;;7.15;5.07;;;;;;;15.22;84.14;102106.00;5029343;28;20065;-61
2022/07/16 04:26:27;;;;;;;8.95;5.75;;;;;;;15.26;85.01;102112.22;5029317;28;20030;-62
2022/07/16 04:28:53;;;;;;;6.55;4.95;;;;;;;15.27;86.08;102113.13;5015989;28;20647;-60
2022/07/16 04:31:19;;;;;;;6.30;5.53;;;;;;;15.28;87.40;102112.25;5029075;28;20381;-61
2022/07/16 04:33:44;;;;;;;8.40;5.57;;;;;;;15.31;87.30;102110.63;5029127;28;20029;-60
2022/07/16 04:36:11;;;;;;;6.30;5.55;;;;;;;15.37;87.85;102107.34;5008899;28;20049;-61
2022/07/16 04:38:36;;;;;;;8.50;5.93;;;;;;;15.41;88.99;102116.16;5022279;28;20033;-62
2022/07/16 04:41:01;;;;;;;7.07;5.68;;;;;;;15.43;89.53;102106.66;5028609;28;20058;-62
2022/07/16 04:43:28;;;;;;;6.22;5.47;;;;;;;15.46;90.29;102111.97;5019612;28;20044;-62
2022/07/16 04:45:53;;;;;;;6.95;6.10;;;;;;;15.46;90.43;102120.69;5025379;28;20044;-62
2022/07/16 04:48:18;;;;;;;6.82;5.40;;;;;;;15.49;91.18;102120.78;5026674;28;20037;-62
2022/07/16 04:50:44;;;;;;;6.72;5.60;;;;;;;15.50;90.99;102126.91;5023549;28;20044;-62
2022/07/16 04:53:09;;;;;;;7.00;5.10;;;;;;;15.50;91.68;102121.69;5028969;28;20028;-62
2022/07/16 04:55:34;;;;;;;6.75;5.97;;;;;;;15.48;93.46;102123.38;5028683;28;20258;-62
2022/07/16 04:58:00;;;;;;;7.88;5.38;;;;;;;15.49;93.88;102119.91;5027319;28;20109;-62
2022/07/16 05:00:26;;;;;;;7.30;5.50;;;;;;;15.54;94.44;102130.50;5028801;28;20036;-61
2022/07/16 05:02:56;;;;;;;9.50;6.40;;;;;;;15.58;94.72;102130.66;5015179;28;20026;-62
2022/07/16 05:05:21;;;;;;;7.97;5.97;;;;;;;15.63;95.97;102132.53;5021438;28;20041;-62
2022/07/16 05:07:47;;;;;;;8.43;6.25;;;;;;;15.68;96.42;102136.16;5022422;28;20033;-62
2022/07/16 05:10:14;;;;;;;6.53;5.13;;;;;;;15.74;95.98;102136.34;5028431;28;20060;-62
2022/07/16 05:12:39;;;;;;;6.43;4.50;;;;;;;15.80;96.43;102133.94;5029046;28;20039;-61
2022/07/16 05:15:05;;;;;;;4.80;4.35;;;;;;;15.88;97.29;102138.50;5028580;28;20025;-61
2022/07/16 05:17:30;;;;;;;4.72;4.28;;;;;;;15.96;97.59;102137.00;5028264;28;20022;-61
2022/07/16 05:19:56;;;;;;;5.25;4.25;;;;;;;16.04;98.11;102146.03;5028491;28;20034;-62
2022/07/16 05:22:21;;;;;;;6.07;4.40;;;;;;;16.11;97.45;102141.84;5015522;28;20021;-62
2022/07/16 05:24:47;;;;;;;5.47;4.03;;;;;;;16.20;98.36;102144.75;5028548;28;20385;-62
2022/07/16 05:27:12;;;;;;;4.68;4.15;;;;;;;16.27;98.27;102153.66;5028357;28;20025;-61
2022/07/16 05:29:37;;;;;;;4.18;3.75;;;;;;;16.32;97.75;102151.16;5028285;28;20018;-62
2022/07/16 05:32:04;;;;;;;6.75;3.92;;;;;;;16.41;97.64;102158.38;5027881;28;20123;-62
2022/07/16 05:34:29;;;;;;;7.45;4.28;;;;;;;16.49;98.88;102158.63;5018968;28;20036;-62
2022/07/16 05:36:54;;;;;;;5.03;3.60;;;;;;;16.57;98.82;102151.84;5016516;28;20460;-62
2022/07/16 05:39:19;;;;;;;6.53;4.00;;;;;;;16.67;99.98;102155.63;5008893;28;20021;-62
2022/07/16 05:41:45;;;;;;;5.10;4.25;;;;;;;16.76;99.84;102158.50;5008827;28;20152;-61
2022/07/16 05:44:10;;;;;;;8.18;4.20;;;;;;;16.87;99.87;102158.81;5009026;28;20040;-62
2022/07/16 05:46:35;;;;;;;4.88;2.88;;;;;;;16.98;98.40;102159.06;5008479;28;20026;-61
2022/07/16 05:49:01;;;;;;;4.32;3.30;;;;;;;17.09;98.26;102161.09;5022142;28;20034;-62
2022/07/16 05:51:26;;;;;;;4.38;3.22;;;;;;;17.21;98.36;102165.78;5009326;28;20018;-62
2022/07/16 05:53:51;;;;;;;5.20;3.28;;;;;;;17.33;97.77;102160.84;5020659;28;20029;-62
2022/07/16 05:56:16;;;;;;;5.20;2.63;;;;;;;17.45;97.59;102156.78;5019068;28;20720;-62
2022/07/16 05:58:42;;;;;;;4.22;2.22;;;;;;;17.60;95.64;102165.00;5020619;28;20033;-62
2022/07/16 06:01:07;;;;;;;2.60;2.28;;;;;;;17.73;93.99;102157.41;5024724;28;20466;-61
2022/07/16 06:03:32;;;;;;;2.78;2.08;;;;;;;17.81;93.10;102163.72;5026813;28;20028;-61
2022/07/16 06:05:58;;;;;;;4.47;1.80;;;;;;;17.94;92.65;102158.75;5026761;28;20791;-62
2022/07/16 06:08:23;;;;;;;4.13;1.33;;;;;;;18.06;91.12;102163.38;5022190;28;20350;-61
2022/07/16 06:10:48;;;;;;;3.60;1.60;;;;;;;18.14;90.93;102180.19;5024002;28;20076;-62
2022/07/16 06:13:13;;;;;;;5.50;2.47;;;;;;;18.22;89.50;102183.84;5021813;28;20021;-62
2022/07/16 06:15:39;;;;;;;3.33;2.13;;;;;;;18.23;89.97;102188.28;5024804;28;20091;-61
2022/07/16 06:18:04;;;;;;;2.88;1.55;;;;;;;18.31;89.04;102184.94;5017983;28;20033;-62
2022/07/16 06:20:30;;;;;;;3.47;2.00;;;;;;;18.38;88.33;102191.19;5023606;28;20018;-61
2022/07/16 06:22:56;;;;;;;3.95;1.90;;;;;;;18.44;87.88;102196.56;5015929;28;20041;-61
2022/07/16 06:25:22;;;;;;;3.63;1.45;;;;;;;18.47;87.63;102200.13;5013960;28;20048;-62
2022/07/16 06:27:47;;;;;;;2.15;1.40;;;;;;;18.52;86.86;102199.34;5026759;28;20048;-62
2022/07/16 06:30:13;;;;;;;2.72;1.50;;;;;;;18.55;86.12;102202.91;5020886;28;20025;-62
2022/07/16 06:32:39;;;;;;;4.45;1.25;;;;;;;18.58;85.97;102202.97;5026421;28;20075;-61
2022/07/16 06:35:06;;;;;;;2.00;1.35;;;;;;;18.60;85.74;102205.66;5020942;28;20036;-61
2022/07/16 06:37:31;;;;;;;2.08;1.30;;;;;;;18.71;86.01;102208.44;5026898;28;20041;-61
2022/07/16 06:39:56;;;;;;;3.88;1.30;;;;;;;18.85;86.16;102211.38;5026796;28;20031;-61
2022/07/16 06:42:22;;;;;;;3.10;1.40;;;;;;;18.99;82.72;102211.63;5026809;28;20025;-62
2022/07/16 06:44:47;;;;;;;2.60;1.30;;;;;;;19.11;81.33;102210.06;5026363;28;20029;-62
2022/07/16 06:47:12;;;;;;;4.03;1.33;;;;;;;19.23;80.16;102220.81;5023009;28;20053;-62
2022/07/16 06:49:37;;;;;;;4.85;1.77;;;;;;;19.26;78.92;102220.00;5026391;28;20136;-61
2022/07/16 06:52:03;;;;;;;3.83;1.67;;;;;;;19.25;79.61;102229.63;5022302;28;20439;-62
2022/07/16 06:54:28;;;;;;;2.85;1.50;;;;;;;19.28;79.42;102219.19;5033534;28;20029;-61
2022/07/16 06:56:53;;;;;;;4.55;1.77;;;;;;;19.32;78.22;102225.34;5020610;28;20045;-61
2022/07/16 06:59:19;;;;;;;2.45;1.25;;;;;;;19.34;78.23;102228.91;5018862;28;20477;-61
2022/07/16 07:01:44;;;;;;;4.53;1.45;;;;;;;19.37;77.89;102230.72;5026888;28;20021;-61
2022/07/16 07:04:09;;;;;;;2.20;1.25;;;;;;;19.47;78.52;102239.63;5019501;28;20029;-60
2022/07/16 07:06:35;;;;;;;3.58;1.40;;;;;;;19.49;77.01;102249.31;5030821;28;20106;-61
2022/07/16 07:09:00;;;;;;;2.15;1.00;;;;;;;19.53;74.47;102243.25;5030611;28;20025;-61
2022/07/16 07:11:25;;;;;;;4.88;1.40;;;;;;;19.61;73.75;102243.38;5030643;28;20014;-61
2022/07/16 07:13:51;;;;;;;2.28;1.05;;;;;;;19.80;73.81;102254.19;5030805;28;20036;-62
2022/07/16 07:16:16;;;;;;;2.20;1.20;;;;;;;20.07;73.20;102252.88;5030589;28;20423;-61
2022/07/16 07:18:42;;;;;;;1.98;0.80;;;;;;;20.24;70.57;102254.84;5016446;28;20025;-62
2022/07/16 07:21:07;;;;;;;1.55;0.90;;;;;;;20.31;67.11;102259.34;5019722;28;20494;-62
2022/07/16 07:23:33;;;;;;;3.20;0.85;;;;;;;20.35;66.22;102263.78;5024806;28;20029;-62
2022/07/16 07:25:58;;;;;;;2.20;0.80;;;;;;;20.43;65.62;102263.00;5030113;28;20045;-63
2022/07/16 07:28:24;;;;;;;2.25;0.95;;;;;;;20.42;65.58;102261.25;5030443;28;20025;-62
2022/07/16 07:30:49;;;;;;;7.82;1.00;;;;;;;20.43;63.12;102271.78;5018008;28;20032;-61
2022/07/16 07:33:14;;;;;;;3.58;1.00;;;;;;;20.45;64.25;102269.19;5030039;28;20354;-62
2022/07/16 07:35:40;;;;;;;1.90;0.70;;;;;;;20.58;64.95;102270.22;5029680;28;20035;-61
2022/07/16 07:38:06;;;;;;;1.55;0.80;;;;;;;20.66;63.09;102273.84;5022264;28;20104;-61
2022/07/16 07:40:31;;;;;;;2.28;0.80;;;;;;;20.72;62.77;102278.28;5024117;28;20141;-61
2022/07/16 07:42:56;;;;;;;1.52;0.90;;;;;;;20.75;62.75;102278.31;5023325;28;20025;-61
2022/07/16 07:45:22;;;;;;;3.08;1.17;;;;;;;20.76;62.78;102272.19;5029989;28;20037;-61
2022/07/16 07:47:47;;;;;;;2.83;0.82;;;;;;;20.73;63.50;102290.59;5028945;28;20033;-61
2022/07/16 07:50:13;;;;;;;1.73;0.98;;;;;;;20.83;61.42;102281.94;5030293;28;20281;-61
2022/07/16 07:52:39;;;;;;;1.52;0.80;;;;;;;21.03;61.78;102278.66;5030064;28;20032;-61
2022/07/16 07:55:05;;;;;;;3.17;1.10;;;;;;;21.28;61.72;102278.06;5023129;28;20143;-61
2022/07/16 07:57:30;;;;;;;1.10;0.82;;;;;;;21.44;61.59;102287.00;5015239;28;20108;-62
2022/07/16 07:59:55;;;;;;;1.90;1.02;;;;;;;21.63;61.38;102284.50;5009786;28;20014;-60
2022/07/16 08:02:21;;;;;;;1.45;0.80;;;;;;;21.63;58.98;102279.22;5013388;28;20449;-62
2022/07/16 08:04:46;;;;;;;2.40;0.73;;;;;;;21.74;58.75;102285.50;5010416;28;20034;-61
2022/07/16 08:07:11;;;;;;;2.63;0.70;;;;;;;21.90;58.25;102288.28;5012099;28;20053;-62
2022/07/16 08:09:37;;;;;;;1.92;0.98;;;;;;;21.89;56.06;102289.16;5010792;28;20028;-60
2022/07/16 08:12:03;;;;;;;2.08;1.00;;;;;;;21.87;56.56;102299.69;5015443;28;20117;-61
2022/07/16 08:14:28;;;;;;;1.90;0.80;;;;;;;21.87;57.33;102299.69;5010486;28;20022;-61
2022/07/16 08:16:55;;;;;;;5.15;1.10;;;;;;;21.86;57.67;102300.56;5010662;28;20042;-61
2022/07/16 08:19:21;;;;;;;1.42;0.85;;;;;;;21.91;57.16;102301.47;5017630;28;20021;-61
2022/07/16 08:21:47;;;;;;;1.95;0.75;;;;;;;22.06;57.58;102305.97;5026549;28;20032;-61
2022/07/16 08:26:56;;;;;;;2.13;1.13;;;;;;;22.65;55.98;102309.84;5022837;28;20032;-61
2022/07/16 08:29:22;;;;;;;2.40;0.95;;;;;;;22.84;55.38;102308.19;5019572;28;20034;-61
2022/07/16 08:31:47;;;;;;;1.70;0.82;;;;;;;22.95;53.49;102309.97;5020583;28;20026;-61
2022/07/16 08:34:12;;;;;;;2.13;0.88;;;;;;;23.06;54.39;102310.00;5012817;28;20030;-61
2022/07/16 08:36:37;;;;;;;1.92;0.77;;;;;;;23.24;54.63;102319.75;5021957;28;20021;-62
2022/07/16 08:39:03;;;;;;;2.35;1.15;;;;;;;23.39;52.00;102314.47;5021442;28;20029;-62
2022/07/16 08:41:29;;;;;;;1.67;0.70;;;;;;;23.54;52.47;102322.44;5027099;28;20045;-62
2022/07/16 08:43:55;;;;;;;1.77;0.80;;;;;;;23.64;51.80;102334.78;5024251;28;20173;-62
2022/07/16 08:46:21;;;;;;;2.05;0.95;;;;;;;23.33;51.04;102332.97;5028187;28;20106;-61
2022/07/16 08:48:48;;;;;;;2.15;0.95;;;;;;;23.22;51.30;102332.06;5027025;28;20099;-61
2022/07/16 08:51:18;;;;;;;3.05;1.00;;;;;;;23.32;50.51;102331.22;5026508;28;20473;-62
2022/07/16 08:53:45;;;;;;;1.83;1.13;;;;;;;23.41;51.19;102342.66;5024240;28;20037;-61
2022/07/16 08:56:10;;;;;;;3.00;0.90;;;;;;;23.53;51.87;102336.56;5013513;28;20026;-61
2022/07/16 08:58:36;;;;;;;2.22;1.00;;;;;;;23.77;51.34;102334.78;5015700;28;20060;-60
2022/07/16 09:01:02;;;;;;;2.55;1.00;;;;;;;23.96;51.86;102346.28;5013727;28;20029;-62
2022/07/16 09:03:27;;;;;;;2.33;1.25;;;;;;;23.77;50.34;102353.31;5026048;28;20239;-61
2022/07/16 09:05:53;;;;;;;2.50;1.00;;;;;;;23.35;49.30;102349.72;5014173;28;20093;-61
2022/07/16 09:08:19;;;;;;;3.28;1.30;;;;;;;22.79;49.29;102353.06;5021394;28;20473;-62
2022/07/16 09:10:45;;;;;;;2.63;0.98;;;;;;;22.36;51.34;102353.66;5011825;28;20370;-61
2022/07/16 09:13:11;;;;;;;2.28;0.90;;;;;;;22.52;53.19;102361.72;5011048;28;20470;-62
2022/07/16 09:15:41;;;;;;;2.63;1.00;;;;;;;22.75;50.72;102361.88;5020787;28;20025;-62
2022/07/16 09:18:10;;;;;;;2.55;0.73;;;;;;;22.92;50.87;102361.03;5022138;28;20036;-61
2022/07/16 09:20:37;;;;;;;1.48;1.00;;;;;;;22.90;50.58;102353.09;5026166;28;20440;-60
2022/07/16 09:23:03;;;;;;;2.97;1.00;;;;;;;22.84;51.21;102357.50;5026828;28;20030;-60
2022/07/16 09:25:29;;;;;;;1.77;0.88;;;;;;;23.03;50.45;102353.16;5026304;28;20037;-61
2022/07/16 09:27:59;;;;;;;2.05;1.00;;;;;;;23.30;50.49;102358.50;5025713;28;20025;-61
2022/07/16 09:30:26;;;;;;;3.10;1.00;;;;;;;23.25;49.74;102364.69;5025230;28;20084;-62
2022/07/16 09:32:52;;;;;;;3.05;0.90;;;;;;;23.35;50.29;102365.56;5026154;28;20692;-61
2022/07/16 09:35:18;;;;;;;3.25;1.30;;;;;;;23.61;50.73;102361.25;5026407;28;20104;-61
2022/07/16 09:37:47;;;;;;;1.52;0.65;;;;;;;23.89;50.28;102374.47;5025954;28;20608;-60
2022/07/16 09:40:13;;;;;;;3.20;0.90;;;;;;;24.06;47.52;102368.31;5026218;28;20105;-61
2022/07/16 09:42:39;;;;;;;1.63;0.80;;;;;;;24.21;48.54;102360.38;5026743;28;20021;-60
2022/07/16 09:45:19;;;;;;;1.90;0.60;;;;;;;24.48;47.09;102359.47;5027112;28;20519;-61
2022/07/16 09:47:44;;;;;;;1.75;0.73;;;;;;;24.52;46.28;102364.72;5017728;28;20059;-61
2022/07/16 09:50:10;;;;;;;1.52;0.70;;;;;;;24.30;47.00;102366.56;5027513;28;20021;-62
2022/07/16 09:52:35;;;;;;;1.58;0.77;;;;;;;24.06;45.98;102373.59;5027854;28;20037;-60
2022/07/16 09:55:01;;;;;;;2.70;1.10;;;;;;;23.57;47.74;102378.00;5017071;28;20029;-61
2022/07/16 09:57:28;;;;;;;2.17;0.80;;;;;;;23.32;48.82;102385.84;5026568;28;20115;-61
2022/07/16 09:59:55;;;;;;;2.40;0.90;;;;;;;23.23;49.87;102387.59;5027904;28;20456;-61
2022/07/16 10:02:20;;;;;;;2.45;0.95;;;;;;;23.17;48.87;102386.69;5016525;28;20032;-62
2022/07/16 10:04:46;;;;;;;2.60;0.95;;;;;;;23.45;48.56;102385.03;5024620;28;20033;-61
2022/07/16 10:07:11;;;;;;;2.80;1.10;;;;;;;23.72;46.95;102391.25;5026525;28;20036;-61
2022/07/16 10:09:37;;;;;;;2.58;1.05;;;;;;;23.66;47.04;102385.94;5027912;28;20044;-60
2022/07/16 10:12:09;;;;;;;2.90;1.10;;;;;;;23.27;48.81;102399.94;5027774;28;20447;-61
2022/07/16 10:14:37;;;;;;;3.25;0.88;;;;;;;23.09;48.43;102389.31;5027521;28;20033;-60
2022/07/16 10:17:16;;;;;;;1.40;0.80;;;;;;;23.00;49.11;102388.41;5026436;28;20040;-61
2022/07/16 10:19:42;;;;;;;1.98;0.75;;;;;;;23.15;48.89;102392.84;5027982;28;20401;-60
2022/07/16 10:22:15;;;;;;;1.65;1.00;;;;;;;23.42;48.11;102398.25;5027149;28;20079;-61
2022/07/16 10:24:53;;;;;;;1.95;0.80;;;;;;;23.77;47.43;102395.66;5021693;28;20026;-59
2022/07/16 10:27:18;;;;;;;1.85;0.63;;;;;;;24.07;47.72;102405.38;5024778;28;20057;-62
2022/07/16 10:29:43;;;;;;;3.13;1.00;;;;;;;24.28;46.47;102410.69;5020958;28;20623;-61
2022/07/16 10:34:54;;;;;;;2.28;0.82;;;;;;;24.53;45.05;102402.72;5008792;28;20500;-61
2022/07/16 10:37:30;;;;;;;3.10;1.10;;;;;;;24.67;45.73;102406.22;5009813;28;20034;-61
2022/07/16 10:40:06;;;;;;;1.92;1.00;;;;;;;24.76;42.95;102404.41;5027279;28;20087;-61
2022/07/16 10:42:31;;;;;;;1.10;0.70;;;;;;;24.89;44.82;102406.16;5025627;28;20087;-61
2022/07/16 10:44:58;;;;;;;3.15;0.95;;;;;;;24.99;44.38;102403.50;5027016;28;20029;-62
2022/07/16 10:47:42;;;;;;;4.60;1.15;;;;;;;25.06;44.74;102413.16;5026989;28;20029;-61
2022/07/16 10:50:21;;;;;;;2.13;0.73;;;;;;;25.06;43.03;102413.16;5027061;28;20040;-61
2022/07/16 10:52:48;;;;;;;2.22;1.00;;;;;;;25.23;43.65;102414.84;5026541;28;20022;-60
2022/07/16 10:55:29;;;;;;;2.75;0.73;;;;;;;25.27;43.14;102416.63;5027513;28;20481;-62
2022/07/16 10:57:55;;;;;;;2.40;0.82;;;;;;;25.03;42.49;102421.13;5027088;28;20100;-62
2022/07/16 11:00:20;;;;;;;1.23;0.70;;;;;;;25.18;43.53;102414.91;5027856;28;20380;-61
2022/07/16 11:02:47;;;;;;;2.33;0.70;;;;;;;25.38;43.56;102416.56;5027030;28;20026;-61
2022/07/16 11:05:12;;;;;;;3.35;0.88;;;;;;;25.19;41.25;102421.94;5026911;28;20029;-60
2022/07/16 11:07:38;;;;;;;2.50;0.80;;;;;;;25.11;41.71;102427.31;5027162;28;20036;-61
2022/07/16 11:10:04;;;;;;;2.13;1.00;;;;;;;25.02;41.83;102420.25;5027353;28;20033;-61
2022/07/16 11:12:32;;;;;;;2.65;0.90;;;;;;;24.91;42.37;102417.63;5027438;28;20060;-60
2022/07/16 11:15:00;;;;;;;3.58;0.80;;;;;;;24.76;42.54;102418.53;5027221;28;20088;-61
2022/07/16 11:17:29;;;;;;;2.17;0.98;;;;;;;24.64;44.03;102429.19;5026730;28;20037;-61
2022/07/16 11:19:59;;;;;;;2.67;1.02;;;;;;;24.75;45.16;102421.22;5027050;28;20353;-62
2022/07/16 11:22:30;;;;;;;2.03;0.95;;;;;;;24.96;43.76;102430.88;5026967;28;20075;-61
2022/07/16 11:25:01;;;;;;;3.75;1.17;;;;;;;25.11;43.59;102424.66;5027054;28;20053;-61
2022/07/16 11:27:34;;;;;;;2.15;0.90;;;;;;;25.21;41.24;102429.88;5026906;28;20108;-61
2022/07/16 11:30:03;;;;;;;4.25;0.98;;;;;;;25.04;41.13;102420.25;5026828;28;20029;-61